sensor_id;sensor_type;location;lat;lon;timestamp;temperature;humidity
74171;DHT22;62526;50.948;6.590;2023-07-24T00:00:50;22.90;99.90
74171;DHT22;62526;50.948;6.590;2023-07-24T00:03:17;22.90;99.90
74171;DHT22;62526;50.948;6.590;2023-07-24T00:05:43;22.80;99.90
74171;DHT22;62526;50.948;6.590;2023-07-24T00:08:10;22.80;99.90
74171;DHT22;62526;50.948;6.590;2023-07-24T00:10:37;22.70;99.90
74171;DHT22;62526;50.948;6.590;2023-07-24T00:13:04;22.60;99.90
74171;DHT22;62526;50.948;6.590;2023-07-24T00:15:31;22.60;99.90
74171;DHT22;62526;50.948;6.590;2023-07-24T00:17:57;22.50;99.90
74171;DHT22;62526;50.948;6.590;2023-07-24T00:20:24;22.60;99.90
74171;DHT22;62526;50.948;6.590;2023-07-24T00:22:51;22.50;99.90
74171;DHT22;62526;50.948;6.590;2023-07-24T00:25:18;22.40;99.90
74171;DHT22;62526;50.948;6.590;2023-07-24T00:27:45;22.40;99.90
74171;DHT22;62526;50.948;6.590;2023-07-24T00:30:11;22.40;99.90
74171;DHT22;62526;50.948;6.590;2023-07-24T00:32:38;22.40;99.90
74171;DHT22;62526;50.948;6.590;2023-07-24T00:35:06;22.50;99.90
74171;DHT22;62526;50.948;6.590;2023-07-24T00:37:33;21.60;99.90
74171;DHT22;62526;50.948;6.590;2023-07-24T00:40:00;22.60;99.90
74171;DHT22;62526;50.948;6.590;2023-07-24T00:42:27;22.60;99.90
74171;DHT22;62526;50.948;6.590;2023-07-24T00:44:53;22.60;99.90
74171;DHT22;62526;50.948;6.590;2023-07-24T00:47:20;22.60;99.90
74171;DHT22;62526;50.948;6.590;2023-07-24T00:49:47;22.60;99.90
74171;DHT22;62526;50.948;6.590;2023-07-24T00:52:14;22.60;99.90
74171;DHT22;62526;50.948;6.590;2023-07-24T00:54:40;22.60;99.90
74171;DHT22;62526;50.948;6.590;2023-07-24T00:57:07;22.50;99.90
74171;DHT22;62526;50.948;6.590;2023-07-24T00:59:33;22.50;99.90
74171;DHT22;62526;50.948;6.590;2023-07-24T01:02:01;22.40;99.90
74171;DHT22;62526;50.948;6.590;2023-07-24T01:04:27;22.40;99.90
74171;DHT22;62526;50.948;6.590;2023-07-24T01:06:54;22.30;99.90
74171;DHT22;62526;50.948;6.590;2023-07-24T01:09:21;22.30;99.90
74171;DHT22;62526;50.948;6.590;2023-07-24T01:11:49;22.30;99.90
74171;DHT22;62526;50.948;6.590;2023-07-24T01:14:21;22.30;99.90
74171;DHT22;62526;50.948;6.590;2023-07-24T01:16:46;22.20;99.90
74171;DHT22;62526;50.948;6.590;2023-07-24T01:19:37;22.20;99.90
74171;DHT22;62526;50.948;6.590;2023-07-24T01:22:14;22.10;99.90
74171;DHT22;62526;50.948;6.590;2023-07-24T01:25:00;22.00;99.90
74171;DHT22;62526;50.948;6.590;2023-07-24T01:27:24;22.00;99.90
74171;DHT22;62526;50.948;6.590;2023-07-24T01:29:51;22.10;99.90
74171;DHT22;62526;50.948;6.590;2023-07-24T01:32:19;22.10;99.90
74171;DHT22;62526;50.948;6.590;2023-07-24T01:34:46;22.20;99.90
74171;DHT22;62526;50.948;6.590;2023-07-24T01:37:12;22.30;99.90
74171;DHT22;62526;50.948;6.590;2023-07-24T01:39:41;22.40;99.90
74171;DHT22;62526;50.948;6.590;2023-07-24T01:42:07;22.40;99.90
74171;DHT22;62526;50.948;6.590;2023-07-24T01:44:34;22.40;99.90
74171;DHT22;62526;50.948;6.590;2023-07-24T01:47:01;22.40;99.90
74171;DHT22;62526;50.948;6.590;2023-07-24T01:49:27;22.40;99.90
74171;DHT22;62526;50.948;6.590;2023-07-24T01:51:54;22.50;99.90
74171;DHT22;62526;50.948;6.590;2023-07-24T01:54:21;22.60;99.90
74171;DHT22;62526;50.948;6.590;2023-07-24T01:56:47;22.60;99.90
74171;DHT22;62526;50.948;6.590;2023-07-24T01:59:15;22.90;99.90
74171;DHT22;62526;50.948;6.590;2023-07-24T02:01:41;22.80;99.90
74171;DHT22;62526;50.948;6.590;2023-07-24T02:04:08;23.00;99.90
74171;DHT22;62526;50.948;6.590;2023-07-24T02:06:35;23.10;99.90
74171;DHT22;62526;50.948;6.590;2023-07-24T02:09:01;23.10;99.90
74171;DHT22;62526;50.948;6.590;2023-07-24T02:11:28;23.10;99.90
74171;DHT22;62526;50.948;6.590;2023-07-24T02:13:55;23.10;99.90
74171;DHT22;62526;50.948;6.590;2023-07-24T02:16:22;23.00;99.90
74171;DHT22;62526;50.948;6.590;2023-07-24T02:18:49;23.00;99.90
74171;DHT22;62526;50.948;6.590;2023-07-24T02:21:15;22.90;99.90
74171;DHT22;62526;50.948;6.590;2023-07-24T02:23:42;22.70;99.90
74171;DHT22;62526;50.948;6.590;2023-07-24T02:26:08;22.60;99.90
74171;DHT22;62526;50.948;6.590;2023-07-24T02:28:35;22.50;99.90
74171;DHT22;62526;50.948;6.590;2023-07-24T02:31:02;22.30;99.90
74171;DHT22;62526;50.948;6.590;2023-07-24T02:33:28;22.20;99.90
74171;DHT22;62526;50.948;6.590;2023-07-24T02:35:55;22.20;99.90
74171;DHT22;62526;50.948;6.590;2023-07-24T02:38:22;22.10;99.90
74171;DHT22;62526;50.948;6.590;2023-07-24T02:40:48;22.10;99.90
74171;DHT22;62526;50.948;6.590;2023-07-24T02:43:15;22.00;99.90
74171;DHT22;62526;50.948;6.590;2023-07-24T02:45:42;22.10;99.90
74171;DHT22;62526;50.948;6.590;2023-07-24T02:48:09;22.10;99.90
74171;DHT22;62526;50.948;6.590;2023-07-24T02:50:36;22.10;99.90
74171;DHT22;62526;50.948;6.590;2023-07-24T02:53:03;22.10;99.90
74171;DHT22;62526;50.948;6.590;2023-07-24T02:55:31;22.20;99.90
74171;DHT22;62526;50.948;6.590;2023-07-24T02:57:57;22.20;99.90
74171;DHT22;62526;50.948;6.590;2023-07-24T03:00:24;22.20;99.90
74171;DHT22;62526;50.948;6.590;2023-07-24T03:02:52;22.20;99.90
74171;DHT22;62526;50.948;6.590;2023-07-24T03:05:17;22.20;99.90
74171;DHT22;62526;50.948;6.590;2023-07-24T03:07:44;22.20;99.90
74171;DHT22;62526;50.948;6.590;2023-07-24T03:10:11;22.80;99.90
74171;DHT22;62526;50.948;6.590;2023-07-24T03:12:38;22.20;99.90
74171;DHT22;62526;50.948;6.590;2023-07-24T03:15:06;22.10;99.90
74171;DHT22;62526;50.948;6.590;2023-07-24T03:17:33;22.10;99.90
74171;DHT22;62526;50.948;6.590;2023-07-24T03:20:07;22.10;99.90
74171;DHT22;62526;50.948;6.590;2023-07-24T03:22:27;22.10;99.90
74171;DHT22;62526;50.948;6.590;2023-07-24T03:24:53;22.10;99.90
74171;DHT22;62526;50.948;6.590;2023-07-24T03:27:20;22.10;99.90
74171;DHT22;62526;50.948;6.590;2023-07-24T03:29:46;22.10;99.90
74171;DHT22;62526;50.948;6.590;2023-07-24T03:32:13;22.10;99.90
74171;DHT22;62526;50.948;6.590;2023-07-24T03:34:40;22.10;99.90
74171;DHT22;62526;50.948;6.590;2023-07-24T03:37:06;22.10;99.90
74171;DHT22;62526;50.948;6.590;2023-07-24T03:39:33;22.00;99.90
74171;DHT22;62526;50.948;6.590;2023-07-24T03:42:00;22.00;99.90
74171;DHT22;62526;50.948;6.590;2023-07-24T03:44:26;22.10;99.90
74171;DHT22;62526;50.948;6.590;2023-07-24T03:46:53;22.10;99.90
74171;DHT22;62526;50.948;6.590;2023-07-24T03:49:20;22.10;99.90
74171;DHT22;62526;50.948;6.590;2023-07-24T03:51:46;22.10;99.90
74171;DHT22;62526;50.948;6.590;2023-07-24T03:54:13;22.10;99.90
74171;DHT22;62526;50.948;6.590;2023-07-24T03:56:40;22.20;99.90
74171;DHT22;62526;50.948;6.590;2023-07-24T03:59:06;22.20;99.90
74171;DHT22;62526;50.948;6.590;2023-07-24T04:01:33;22.20;99.90
74171;DHT22;62526;50.948;6.590;2023-07-24T04:04:00;22.30;99.90
74171;DHT22;62526;50.948;6.590;2023-07-24T04:06:26;22.30;99.90
74171;DHT22;62526;50.948;6.590;2023-07-24T04:08:53;22.30;99.90
74171;DHT22;62526;50.948;6.590;2023-07-24T04:11:20;22.30;99.90
74171;DHT22;62526;50.948;6.590;2023-07-24T04:13:46;22.30;99.90
74171;DHT22;62526;50.948;6.590;2023-07-24T04:16:13;22.30;99.90
74171;DHT22;62526;50.948;6.590;2023-07-24T04:18:40;22.30;99.90
74171;DHT22;62526;50.948;6.590;2023-07-24T04:21:06;22.30;99.90
74171;DHT22;62526;50.948;6.590;2023-07-24T04:23:33;22.30;99.90
74171;DHT22;62526;50.948;6.590;2023-07-24T04:26:00;22.30;99.90
74171;DHT22;62526;50.948;6.590;2023-07-24T04:28:27;22.40;99.90
74171;DHT22;62526;50.948;6.590;2023-07-24T04:30:54;22.40;99.90
74171;DHT22;62526;50.948;6.590;2023-07-24T04:33:21;22.40;99.90
74171;DHT22;62526;50.948;6.590;2023-07-24T04:35:48;22.40;99.90
74171;DHT22;62526;50.948;6.590;2023-07-24T04:38:14;22.40;99.90
74171;DHT22;62526;50.948;6.590;2023-07-24T04:40:43;22.40;99.90
74171;DHT22;62526;50.948;6.590;2023-07-24T04:43:08;22.30;99.90
74171;DHT22;62526;50.948;6.590;2023-07-24T04:45:36;22.30;99.90
74171;DHT22;62526;50.948;6.590;2023-07-24T04:48:02;22.40;99.90
74171;DHT22;62526;50.948;6.590;2023-07-24T04:50:29;22.40;99.90
74171;DHT22;62526;50.948;6.590;2023-07-24T04:52:56;22.40;99.90
74171;DHT22;62526;50.948;6.590;2023-07-24T04:55:22;22.40;99.90
74171;DHT22;62526;50.948;6.590;2023-07-24T04:57:49;22.50;99.90
74171;DHT22;62526;50.948;6.590;2023-07-24T05:00:16;22.50;99.90
74171;DHT22;62526;50.948;6.590;2023-07-24T05:02:43;22.60;99.90
74171;DHT22;62526;50.948;6.590;2023-07-24T05:05:10;22.60;99.90
74171;DHT22;62526;50.948;6.590;2023-07-24T05:07:37;22.70;99.90
74171;DHT22;62526;50.948;6.590;2023-07-24T05:10:04;22.80;99.90
74171;DHT22;62526;50.948;6.590;2023-07-24T05:12:31;22.90;99.90
74171;DHT22;62526;50.948;6.590;2023-07-24T05:14:57;22.90;99.90
74171;DHT22;62526;50.948;6.590;2023-07-24T05:17:24;22.90;99.90
74171;DHT22;62526;50.948;6.590;2023-07-24T05:19:51;23.00;99.90
74171;DHT22;62526;50.948;6.590;2023-07-24T05:22:18;23.00;99.90
74171;DHT22;62526;50.948;6.590;2023-07-24T05:24:45;23.10;99.90
74171;DHT22;62526;50.948;6.590;2023-07-24T05:27:12;23.10;99.90
74171;DHT22;62526;50.948;6.590;2023-07-24T05:29:39;23.10;99.90
74171;DHT22;62526;50.948;6.590;2023-07-24T05:32:06;22.90;99.90
74171;DHT22;62526;50.948;6.590;2023-07-24T05:34:34;22.90;99.90
74171;DHT22;62526;50.948;6.590;2023-07-24T05:37:00;22.90;99.90
74171;DHT22;62526;50.948;6.590;2023-07-24T05:39:29;23.10;99.90
74171;DHT22;62526;50.948;6.590;2023-07-24T05:41:54;23.10;99.90
74171;DHT22;62526;50.948;6.590;2023-07-24T05:44:24;23.20;99.90
74171;DHT22;62526;50.948;6.590;2023-07-24T05:46:51;23.30;99.90
74171;DHT22;62526;50.948;6.590;2023-07-24T05:49:18;23.30;99.90
74171;DHT22;62526;50.948;6.590;2023-07-24T05:51:45;23.30;99.90
74171;DHT22;62526;50.948;6.590;2023-07-24T05:54:11;23.10;99.90
74171;DHT22;62526;50.948;6.590;2023-07-24T05:56:38;22.90;99.90
74171;DHT22;62526;50.948;6.590;2023-07-24T05:59:05;23.00;99.90
74171;DHT22;62526;50.948;6.590;2023-07-24T06:01:31;22.90;99.90
74171;DHT22;62526;50.948;6.590;2023-07-24T06:03:58;23.00;99.90
74171;DHT22;62526;50.948;6.590;2023-07-24T06:06:26;23.10;99.90
74171;DHT22;62526;50.948;6.590;2023-07-24T06:08:52;23.10;99.90
74171;DHT22;62526;50.948;6.590;2023-07-24T06:11:19;23.00;99.90
74171;DHT22;62526;50.948;6.590;2023-07-24T06:13:46;23.00;99.90
74171;DHT22;62526;50.948;6.590;2023-07-24T06:16:12;23.10;99.90
74171;DHT22;62526;50.948;6.590;2023-07-24T06:18:40;23.30;99.90
74171;DHT22;62526;50.948;6.590;2023-07-24T06:21:06;23.30;99.90
74171;DHT22;62526;50.948;6.590;2023-07-24T06:23:33;23.30;99.90
74171;DHT22;62526;50.948;6.590;2023-07-24T06:26:00;23.10;99.90
74171;DHT22;62526;50.948;6.590;2023-07-24T06:28:26;23.10;99.90
74171;DHT22;62526;50.948;6.590;2023-07-24T06:30:53;23.20;99.90
74171;DHT22;62526;50.948;6.590;2023-07-24T06:33:19;23.10;99.90
74171;DHT22;62526;50.948;6.590;2023-07-24T06:35:48;23.00;99.90
74171;DHT22;62526;50.948;6.590;2023-07-24T06:38:13;23.10;99.90
74171;DHT22;62526;50.948;6.590;2023-07-24T06:40:40;23.40;99.90
74171;DHT22;62526;50.948;6.590;2023-07-24T06:43:06;23.70;99.90
74171;DHT22;62526;50.948;6.590;2023-07-24T06:45:33;23.50;99.20
74171;DHT22;62526;50.948;6.590;2023-07-24T06:48:00;23.30;99.20
74171;DHT22;62526;50.948;6.590;2023-07-24T06:50:26;23.40;99.10
74171;DHT22;62526;50.948;6.590;2023-07-24T06:52:53;23.40;99.00
74171;DHT22;62526;50.948;6.590;2023-07-24T06:55:20;23.10;98.60
74171;DHT22;62526;50.948;6.590;2023-07-24T06:57:46;23.40;98.90
74171;DHT22;62526;50.948;6.590;2023-07-24T07:00:13;23.60;98.70
74171;DHT22;62526;50.948;6.590;2023-07-24T07:02:40;23.70;98.10
74171;DHT22;62526;50.948;6.590;2023-07-24T07:05:07;23.80;97.80
74171;DHT22;62526;50.948;6.590;2023-07-24T07:07:33;23.60;97.60
74171;DHT22;62526;50.948;6.590;2023-07-24T07:10:00;23.30;97.60
74171;DHT22;62526;50.948;6.590;2023-07-24T07:12:27;23.30;97.70
74171;DHT22;62526;50.948;6.590;2023-07-24T07:14:53;23.40;97.50
74171;DHT22;62526;50.948;6.590;2023-07-24T07:17:20;23.40;97.60
74171;DHT22;62526;50.948;6.590;2023-07-24T07:19:47;23.40;97.80
74171;DHT22;62526;50.948;6.590;2023-07-24T07:22:13;23.30;97.30
74171;DHT22;62526;50.948;6.590;2023-07-24T07:24:40;23.10;97.80
74171;DHT22;62526;50.948;6.590;2023-07-24T07:27:06;23.30;97.80
74171;DHT22;62526;50.948;6.590;2023-07-24T07:29:33;23.50;97.30
74171;DHT22;62526;50.948;6.590;2023-07-24T07:32:00;23.30;97.30
74171;DHT22;62526;50.948;6.590;2023-07-24T07:34:26;23.30;97.80
74171;DHT22;62526;50.948;6.590;2023-07-24T07:36:53;23.60;97.40
74171;DHT22;62526;50.948;6.590;2023-07-24T07:39:20;23.50;97.00
74171;DHT22;62526;50.948;6.590;2023-07-24T07:41:47;23.30;97.30
74171;DHT22;62526;50.948;6.590;2023-07-24T07:44:13;23.50;97.50
74171;DHT22;62526;50.948;6.590;2023-07-24T07:46:40;23.80;97.10
74171;DHT22;62526;50.948;6.590;2023-07-24T07:49:07;24.00;96.80
74171;DHT22;62526;50.948;6.590;2023-07-24T07:51:33;24.00;96.90
74171;DHT22;62526;50.948;6.590;2023-07-24T07:54:00;23.80;96.60
74171;DHT22;62526;50.948;6.590;2023-07-24T07:56:26;23.70;96.90
74171;DHT22;62526;50.948;6.590;2023-07-24T07:58:53;23.90;96.60
74171;DHT22;62526;50.948;6.590;2023-07-24T08:01:20;24.00;96.70
74171;DHT22;62526;50.948;6.590;2023-07-24T08:03:46;24.20;96.70
74171;DHT22;62526;50.948;6.590;2023-07-24T08:06:13;24.20;96.10
74171;DHT22;62526;50.948;6.590;2023-07-24T08:08:40;24.00;95.30
74171;DHT22;62526;50.948;6.590;2023-07-24T08:11:06;24.00;96.40
74171;DHT22;62526;50.948;6.590;2023-07-24T08:13:34;23.90;96.40
74171;DHT22;62526;50.948;6.590;2023-07-24T08:16:00;23.80;96.40
74171;DHT22;62526;50.948;6.590;2023-07-24T08:18:27;24.10;96.00
74171;DHT22;62526;50.948;6.590;2023-07-24T08:20:53;24.30;95.50
74171;DHT22;62526;50.948;6.590;2023-07-24T08:23:20;24.20;95.60
74171;DHT22;62526;50.948;6.590;2023-07-24T08:25:52;24.00;95.30
74171;DHT22;62526;50.948;6.590;2023-07-24T08:28:18;23.90;95.30
74171;DHT22;62526;50.948;6.590;2023-07-24T08:30:45;24.00;94.40
74171;DHT22;62526;50.948;6.590;2023-07-24T08:33:12;24.30;95.50
74171;DHT22;62526;50.948;6.590;2023-07-24T08:35:38;24.70;94.80
74171;DHT22;62526;50.948;6.590;2023-07-24T08:38:05;24.90;94.50
74171;DHT22;62526;50.948;6.590;2023-07-24T08:40:31;24.90;94.40
74171;DHT22;62526;50.948;6.590;2023-07-24T08:42:58;24.80;94.10
74171;DHT22;62526;50.948;6.590;2023-07-24T08:45:25;24.80;94.00
74171;DHT22;62526;50.948;6.590;2023-07-24T08:47:52;24.70;94.00
74171;DHT22;62526;50.948;6.590;2023-07-24T08:50:19;24.70;93.90
74171;DHT22;62526;50.948;6.590;2023-07-24T08:52:46;24.50;94.10
74171;DHT22;62526;50.948;6.590;2023-07-24T08:55:12;24.30;94.50
74171;DHT22;62526;50.948;6.590;2023-07-24T08:57:39;24.10;94.60
74171;DHT22;62526;50.948;6.590;2023-07-24T09:00:06;24.00;94.70
74171;DHT22;62526;50.948;6.590;2023-07-24T09:02:33;24.00;94.80
74171;DHT22;62526;50.948;6.590;2023-07-24T09:05:00;24.00;94.80
74171;DHT22;62526;50.948;6.590;2023-07-24T09:07:27;24.20;94.90
74171;DHT22;62526;50.948;6.590;2023-07-24T09:09:53;24.40;95.10
74171;DHT22;62526;50.948;6.590;2023-07-24T09:12:21;24.50;94.60
74171;DHT22;62526;50.948;6.590;2023-07-24T09:14:46;24.20;94.60
74171;DHT22;62526;50.948;6.590;2023-07-24T09:17:13;24.20;95.00
74171;DHT22;62526;50.948;6.590;2023-07-24T09:19:40;24.50;94.90
74171;DHT22;62526;50.948;6.590;2023-07-24T09:22:09;24.60;94.40
74171;DHT22;62526;50.948;6.590;2023-07-24T09:24:35;24.70;94.00
74171;DHT22;62526;50.948;6.590;2023-07-24T09:27:04;24.70;94.00
74171;DHT22;62526;50.948;6.590;2023-07-24T09:29:31;24.90;93.50
74171;DHT22;62526;50.948;6.590;2023-07-24T09:31:57;25.00;93.70
74171;DHT22;62526;50.948;6.590;2023-07-24T09:34:24;25.10;93.40
74171;DHT22;62526;50.948;6.590;2023-07-24T09:36:51;25.20;93.10
74171;DHT22;62526;50.948;6.590;2023-07-24T09:39:23;25.40;92.50
74171;DHT22;62526;50.948;6.590;2023-07-24T09:41:49;25.50;92.40
74171;DHT22;62526;50.948;6.590;2023-07-24T09:44:15;25.50;91.80
74171;DHT22;62526;50.948;6.590;2023-07-24T09:46:42;25.50;92.20
74171;DHT22;62526;50.948;6.590;2023-07-24T09:49:09;25.60;91.90
74171;DHT22;62526;50.948;6.590;2023-07-24T09:51:35;25.80;91.90
74171;DHT22;62526;50.948;6.590;2023-07-24T09:56:44;26.20;91.20
74171;DHT22;62526;50.948;6.590;2023-07-24T09:59:10;26.00;91.00
74171;DHT22;62526;50.948;6.590;2023-07-24T10:01:37;26.00;91.10
74171;DHT22;62526;50.948;6.590;2023-07-24T10:04:04;26.10;90.50
74171;DHT22;62526;50.948;6.590;2023-07-24T10:06:30;26.00;90.80
74171;DHT22;62526;50.948;6.590;2023-07-24T10:08:57;25.70;91.10
74171;DHT22;62526;50.948;6.590;2023-07-24T10:11:24;25.90;92.50
74171;DHT22;62526;50.948;6.590;2023-07-24T10:13:51;25.90;92.50
74171;DHT22;62526;50.948;6.590;2023-07-24T10:16:19;26.80;90.70
74171;DHT22;62526;50.948;6.590;2023-07-24T10:18:46;26.80;90.60
74171;DHT22;62526;50.948;6.590;2023-07-24T10:21:13;27.40;88.70
74171;DHT22;62526;50.948;6.590;2023-07-24T10:23:44;27.40;88.60
74171;DHT22;62526;50.948;6.590;2023-07-24T10:26:09;27.60;86.30
74171;DHT22;62526;50.948;6.590;2023-07-24T10:28:36;27.50;86.10
74171;DHT22;62526;50.948;6.590;2023-07-24T10:31:06;27.40;86.10
74171;DHT22;62526;50.948;6.590;2023-07-24T10:33:32;27.30;86.80
74171;DHT22;62526;50.948;6.590;2023-07-24T10:36:05;27.70;85.70
74171;DHT22;62526;50.948;6.590;2023-07-24T10:38:34;27.70;85.70
74171;DHT22;62526;50.948;6.590;2023-07-24T10:41:01;27.60;85.10
74171;DHT22;62526;50.948;6.590;2023-07-24T10:43:27;27.40;85.90
74171;DHT22;62526;50.948;6.590;2023-07-24T10:45:54;27.20;86.10
74171;DHT22;62526;50.948;6.590;2023-07-24T10:48:21;27.00;86.10
74171;DHT22;62526;50.948;6.590;2023-07-24T10:50:48;27.00;87.00
74171;DHT22;62526;50.948;6.590;2023-07-24T10:53:16;27.30;87.60
74171;DHT22;62526;50.948;6.590;2023-07-24T10:55:43;27.30;88.60
74171;DHT22;62526;50.948;6.590;2023-07-24T10:58:09;27.30;90.00
74171;DHT22;62526;50.948;6.590;2023-07-24T11:00:36;27.30;90.70
74171;DHT22;62526;50.948;6.590;2023-07-24T11:03:02;27.10;90.50
74171;DHT22;62526;50.948;6.590;2023-07-24T11:05:29;26.90;91.00
74171;DHT22;62526;50.948;6.590;2023-07-24T11:07:56;26.60;91.70
74171;DHT22;62526;50.948;6.590;2023-07-24T11:10:22;26.30;92.00
74171;DHT22;62526;50.948;6.590;2023-07-24T11:12:49;26.10;93.10
74171;DHT22;62526;50.948;6.590;2023-07-24T11:15:23;25.90;93.20
74171;DHT22;62526;50.948;6.590;2023-07-24T11:17:43;25.30;95.40
74171;DHT22;62526;50.948;6.590;2023-07-24T11:20:11;24.20;97.60
74171;DHT22;62526;50.948;6.590;2023-07-24T11:22:39;23.30;98.80
74171;DHT22;62526;50.948;6.590;2023-07-24T11:25:06;22.50;99.90
74171;DHT22;62526;50.948;6.590;2023-07-24T11:27:33;22.10;99.90
74171;DHT22;62526;50.948;6.590;2023-07-24T11:29:59;22.20;99.90
74171;DHT22;62526;50.948;6.590;2023-07-24T11:32:26;23.10;99.90
74171;DHT22;62526;50.948;6.590;2023-07-24T11:34:53;23.10;99.90
74171;DHT22;62526;50.948;6.590;2023-07-24T11:37:20;23.50;99.90
74171;DHT22;62526;50.948;6.590;2023-07-24T11:39:55;23.40;99.90
74171;DHT22;62526;50.948;6.590;2023-07-24T11:42:21;23.40;99.90
74171;DHT22;62526;50.948;6.590;2023-07-24T11:44:47;22.70;99.90
74171;DHT22;62526;50.948;6.590;2023-07-24T11:47:14;22.00;99.90
74171;DHT22;62526;50.948;6.590;2023-07-24T11:49:40;21.80;99.90
74171;DHT22;62526;50.948;6.590;2023-07-24T11:52:08;22.30;99.90
74171;DHT22;62526;50.948;6.590;2023-07-24T11:54:34;22.20;99.90
74171;DHT22;62526;50.948;6.590;2023-07-24T11:57:01;22.40;99.90
74171;DHT22;62526;50.948;6.590;2023-07-24T11:59:28;22.60;99.90
74171;DHT22;62526;50.948;6.590;2023-07-24T12:01:54;22.70;99.90
74171;DHT22;62526;50.948;6.590;2023-07-24T12:04:21;22.80;99.90
74171;DHT22;62526;50.948;6.590;2023-07-24T12:06:48;22.90;99.90
74171;DHT22;62526;50.948;6.590;2023-07-24T12:09:14;23.00;99.90
74171;DHT22;62526;50.948;6.590;2023-07-24T12:11:42;23.00;99.90
74171;DHT22;62526;50.948;6.590;2023-07-24T12:14:09;23.40;99.90
74171;DHT22;62526;50.948;6.590;2023-07-24T12:16:36;23.80;99.90
74171;DHT22;62526;50.948;6.590;2023-07-24T12:19:03;24.20;99.90
74171;DHT22;62526;50.948;6.590;2023-07-24T12:21:29;24.20;99.90
74171;DHT22;62526;50.948;6.590;2023-07-24T12:23:56;24.60;99.90
74171;DHT22;62526;50.948;6.590;2023-07-24T12:26:23;24.90;99.90
74171;DHT22;62526;50.948;6.590;2023-07-24T12:28:49;24.80;99.90
74171;DHT22;62526;50.948;6.590;2023-07-24T12:31:16;25.20;99.90
74171;DHT22;62526;50.948;6.590;2023-07-24T12:33:43;25.60;99.40
74171;DHT22;62526;50.948;6.590;2023-07-24T12:36:09;25.70;96.50
74171;DHT22;62526;50.948;6.590;2023-07-24T12:38:36;25.60;97.40
74171;DHT22;62526;50.948;6.590;2023-07-24T12:41:03;25.90;97.90
74171;DHT22;62526;50.948;6.590;2023-07-24T12:43:29;26.30;97.80
74171;DHT22;62526;50.948;6.590;2023-07-24T12:45:56;26.80;97.20
74171;DHT22;62526;50.948;6.590;2023-07-24T12:48:22;27.20;96.90
74171;DHT22;62526;50.948;6.590;2023-07-24T12:50:49;27.30;96.10
74171;DHT22;62526;50.948;6.590;2023-07-24T12:53:16;27.80;94.90
74171;DHT22;62526;50.948;6.590;2023-07-24T12:55:42;28.30;96.00
74171;DHT22;62526;50.948;6.590;2023-07-24T12:58:09;29.00;92.40
74171;DHT22;62526;50.948;6.590;2023-07-24T13:00:36;29.00;89.50
74171;DHT22;62526;50.948;6.590;2023-07-24T13:03:02;29.40;88.10
74171;DHT22;62526;50.948;6.590;2023-07-24T13:05:29;30.00;87.40
74171;DHT22;62526;50.948;6.590;2023-07-24T13:07:56;30.40;85.00
74171;DHT22;62526;50.948;6.590;2023-07-24T13:10:22;30.10;84.50
74171;DHT22;62526;50.948;6.590;2023-07-24T13:12:49;29.50;83.00
74171;DHT22;62526;50.948;6.590;2023-07-24T13:15:15;28.70;85.60
74171;DHT22;62526;50.948;6.590;2023-07-24T13:17:42;27.90;87.80
74171;DHT22;62526;50.948;6.590;2023-07-24T13:20:10;27.30;89.00
74171;DHT22;62526;50.948;6.590;2023-07-24T13:22:36;27.10;89.30
74171;DHT22;62526;50.948;6.590;2023-07-24T13:25:03;26.90;89.90
74171;DHT22;62526;50.948;6.590;2023-07-24T13:27:30;26.70;90.00
74171;DHT22;62526;50.948;6.590;2023-07-24T13:29:56;26.60;90.40
74171;DHT22;62526;50.948;6.590;2023-07-24T13:32:23;26.30;90.90
74171;DHT22;62526;50.948;6.590;2023-07-24T13:34:51;26.00;91.60
74171;DHT22;62526;50.948;6.590;2023-07-24T13:37:17;26.00;91.60
74171;DHT22;62526;50.948;6.590;2023-07-24T13:39:44;25.80;92.00
74171;DHT22;62526;50.948;6.590;2023-07-24T13:42:10;25.50;91.90
74171;DHT22;62526;50.948;6.590;2023-07-24T13:44:37;25.40;92.20
74171;DHT22;62526;50.948;6.590;2023-07-24T13:47:05;25.00;94.60
74171;DHT22;62526;50.948;6.590;2023-07-24T13:49:31;25.00;94.70
74171;DHT22;62526;50.948;6.590;2023-07-24T13:51:58;24.80;95.20
74171;DHT22;62526;50.948;6.590;2023-07-24T13:54:25;24.60;96.30
74171;DHT22;62526;50.948;6.590;2023-07-24T13:56:58;24.10;97.40
74171;DHT22;62526;50.948;6.590;2023-07-24T13:59:32;23.50;99.20
74171;DHT22;62526;50.948;6.590;2023-07-24T14:01:59;23.50;99.90
74171;DHT22;62526;50.948;6.590;2023-07-24T14:04:25;23.20;99.90
74171;DHT22;62526;50.948;6.590;2023-07-24T14:06:52;23.20;99.90
74171;DHT22;62526;50.948;6.590;2023-07-24T14:09:19;23.30;99.90
74171;DHT22;62526;50.948;6.590;2023-07-24T14:11:46;23.60;99.90
74171;DHT22;62526;50.948;6.590;2023-07-24T14:14:12;23.70;99.90
74171;DHT22;62526;50.948;6.590;2023-07-24T14:16:39;23.90;99.90
74171;DHT22;62526;50.948;6.590;2023-07-24T14:19:06;24.50;99.90
74171;DHT22;62526;50.948;6.590;2023-07-24T14:21:32;25.00;98.90
74171;DHT22;62526;50.948;6.590;2023-07-24T14:24:00;25.20;97.00
74171;DHT22;62526;50.948;6.590;2023-07-24T14:26:27;24.90;96.80
74171;DHT22;62526;50.948;6.590;2023-07-24T14:28:54;24.80;96.60
74171;DHT22;62526;50.948;6.590;2023-07-24T14:31:23;24.80;96.90
74171;DHT22;62526;50.948;6.590;2023-07-24T14:33:50;24.70;97.60
74171;DHT22;62526;50.948;6.590;2023-07-24T14:36:18;24.00;97.70
74171;DHT22;62526;50.948;6.590;2023-07-24T14:38:45;23.80;98.30
74171;DHT22;62526;50.948;6.590;2023-07-24T14:41:12;24.10;98.40
74171;DHT22;62526;50.948;6.590;2023-07-24T14:43:40;24.70;96.70
74171;DHT22;62526;50.948;6.590;2023-07-24T14:46:07;25.20;96.10
74171;DHT22;62526;50.948;6.590;2023-07-24T14:48:33;25.30;96.30
74171;DHT22;62526;50.948;6.590;2023-07-24T14:51:00;26.30;95.40
74171;DHT22;62526;50.948;6.590;2023-07-24T14:53:27;26.50;94.30
74171;DHT22;62526;50.948;6.590;2023-07-24T14:55:53;26.60;93.40
74171;DHT22;62526;50.948;6.590;2023-07-24T14:58:20;26.30;93.00
74171;DHT22;62526;50.948;6.590;2023-07-24T15:00:47;26.30;93.50
74171;DHT22;62526;50.948;6.590;2023-07-24T15:03:13;26.20;93.70
74171;DHT22;62526;50.948;6.590;2023-07-24T15:05:40;26.50;93.00
74171;DHT22;62526;50.948;6.590;2023-07-24T15:08:07;26.50;92.10
74171;DHT22;62526;50.948;6.590;2023-07-24T15:10:33;26.30;92.70
74171;DHT22;62526;50.948;6.590;2023-07-24T15:13:00;25.90;92.50
74171;DHT22;62526;50.948;6.590;2023-07-24T15:15:27;26.30;92.00
74171;DHT22;62526;50.948;6.590;2023-07-24T15:17:55;26.50;90.90
74171;DHT22;62526;50.948;6.590;2023-07-24T15:20:20;26.00;90.50
74171;DHT22;62526;50.948;6.590;2023-07-24T15:22:47;25.50;92.30
74171;DHT22;62526;50.948;6.590;2023-07-24T15:25:13;24.60;92.90
74171;DHT22;62526;50.948;6.590;2023-07-24T15:27:40;24.40;93.30
74171;DHT22;62526;50.948;6.590;2023-07-24T15:30:07;25.50;94.30